sensor_id;sensor_type;location;lat;lon;timestamp;P1;durP1;ratioP1;P2;durP2;ratioP2
40755;SDS011;26461;45.630;9.418;2022-12-31T00:02:44;34.08;;;21.48;;
40755;SDS011;26461;45.630;9.418;2022-12-31T00:05:54;29.40;;;21.63;;
40755;SDS011;26461;45.630;9.418;2022-12-31T00:09:05;41.58;;;27.90;;
40755;SDS011;26461;45.630;9.418;2022-12-31T00:12:16;30.85;;;23.67;;
40755;SDS011;26461;45.630;9.418;2022-12-31T00:15:27;30.70;;;22.58;;
40755;SDS011;26461;45.630;9.418;2022-12-31T00:18:38;31.17;;;22.23;;
40755;SDS011;26461;45.630;9.418;2022-12-31T00:21:50;40.38;;;26.42;;
40755;SDS011;26461;45.630;9.418;2022-12-31T00:25:00;33.20;;;24.50;;
40755;SDS011;26461;45.630;9.418;2022-12-31T00:28:10;42.67;;;27.15;;
40755;SDS011;26461;45.630;9.418;2022-12-31T00:31:21;60.13;;;22.70;;
40755;SDS011;26461;45.630;9.418;2022-12-31T00:34:33;35.03;;;23.10;;
40755;SDS011;26461;45.630;9.418;2022-12-31T00:37:42;31.38;;;22.25;;
40755;SDS011;26461;45.630;9.418;2022-12-31T00:40:52;27.65;;;19.35;;
40755;SDS011;26461;45.630;9.418;2022-12-31T00:44:02;31.00;;;24.92;;
40755;SDS011;26461;45.630;9.418;2022-12-31T00:47:12;31.73;;;22.45;;
40755;SDS011;26461;45.630;9.418;2022-12-31T00:50:22;27.25;;;24.40;;
40755;SDS011;26461;45.630;9.418;2022-12-31T00:53:32;26.67;;;20.63;;
40755;SDS011;26461;45.630;9.418;2022-12-31T00:56:43;31.23;;;22.40;;
40755;SDS011;26461;45.630;9.418;2022-12-31T00:59:52;39.92;;;24.65;;
40755;SDS011;26461;45.630;9.418;2022-12-31T01:02:57;41.03;;;24.90;;
40755;SDS011;26461;45.630;9.418;2022-12-31T01:06:07;45.80;;;25.33;;
40755;SDS011;26461;45.630;9.418;2022-12-31T01:09:17;33.22;;;24.67;;
40755;SDS011;26461;45.630;9.418;2022-12-31T01:12:23;33.10;;;23.85;;
40755;SDS011;26461;45.630;9.418;2022-12-31T01:15:36;28.33;;;19.38;;
40755;SDS011;26461;45.630;9.418;2022-12-31T01:18:47;31.83;;;25.88;;
40755;SDS011;26461;45.630;9.418;2022-12-31T01:40:37;48.10;;;28.77;;
40755;SDS011;26461;45.630;9.418;2022-12-31T01:43:52;43.20;;;26.23;;
40755;SDS011;26461;45.630;9.418;2022-12-31T01:47:14;44.20;;;26.65;;
40755;SDS011;26461;45.630;9.418;2022-12-31T01:50:29;39.00;;;24.52;;
40755;SDS011;26461;45.630;9.418;2022-12-31T01:53:37;39.00;;;25.08;;
40755;SDS011;26461;45.630;9.418;2022-12-31T01:56:42;44.75;;;25.17;;
40755;SDS011;26461;45.630;9.418;2022-12-31T01:59:55;32.08;;;22.38;;
40755;SDS011;26461;45.630;9.418;2022-12-31T02:03:08;38.80;;;22.90;;
40755;SDS011;26461;45.630;9.418;2022-12-31T02:06:27;39.00;;;24.98;;
40755;SDS011;26461;45.630;9.418;2022-12-31T02:09:42;31.60;;;23.13;;
40755;SDS011;26461;45.630;9.418;2022-12-31T02:16:28;31.90;;;20.35;;
40755;SDS011;26461;45.630;9.418;2022-12-31T02:31:07;35.92;;;26.17;;
40755;SDS011;26461;45.630;9.418;2022-12-31T02:34:33;41.45;;;27.88;;
40755;SDS011;26461;45.630;9.418;2022-12-31T02:37:49;40.22;;;26.85;;
40755;SDS011;26461;45.630;9.418;2022-12-31T02:41:04;28.40;;;20.25;;
40755;SDS011;26461;45.630;9.418;2022-12-31T03:01:12;33.47;;;20.42;;
40755;SDS011;26461;45.630;9.418;2022-12-31T03:04:46;23.48;;;19.88;;
40755;SDS011;26461;45.630;9.418;2022-12-31T03:07:57;33.92;;;21.48;;
40755;SDS011;26461;45.630;9.418;2022-12-31T03:11:02;38.33;;;23.02;;
40755;SDS011;26461;45.630;9.418;2022-12-31T03:14:27;23.45;;;19.13;;
40755;SDS011;26461;45.630;9.418;2022-12-31T03:17:33;22.10;;;19.00;;
40755;SDS011;26461;45.630;9.418;2022-12-31T03:20:48;22.98;;;18.48;;
40755;SDS011;26461;45.630;9.418;2022-12-31T03:24:13;23.35;;;16.35;;
40755;SDS011;26461;45.630;9.418;2022-12-31T03:27:36;21.30;;;15.20;;
40755;SDS011;26461;45.630;9.418;2022-12-31T03:30:48;36.50;;;21.55;;
40755;SDS011;26461;45.630;9.418;2022-12-31T03:34:02;32.97;;;22.30;;
40755;SDS011;26461;45.630;9.418;2022-12-31T03:37:09;33.92;;;25.55;;
40755;SDS011;26461;45.630;9.418;2022-12-31T03:40:14;31.02;;;21.48;;
40755;SDS011;26461;45.630;9.418;2022-12-31T03:43:26;36.42;;;21.58;;
40755;SDS011;26461;45.630;9.418;2022-12-31T03:46:31;40.25;;;23.95;;
40755;SDS011;26461;45.630;9.418;2022-12-31T03:49:36;28.25;;;18.45;;
40755;SDS011;26461;45.630;9.418;2022-12-31T03:52:41;31.20;;;21.15;;
40755;SDS011;26461;45.630;9.418;2022-12-31T03:55:51;27.67;;;20.35;;
40755;SDS011;26461;45.630;9.418;2022-12-31T03:59:01;31.13;;;20.30;;
40755;SDS011;26461;45.630;9.418;2022-12-31T04:02:06;42.58;;;21.55;;
40755;SDS011;26461;45.630;9.418;2022-12-31T04:05:17;37.40;;;22.58;;
40755;SDS011;26461;45.630;9.418;2022-12-31T04:08:23;29.48;;;24.38;;
40755;SDS011;26461;45.630;9.418;2022-12-31T04:11:29;38.42;;;23.45;;
40755;SDS011;26461;45.630;9.418;2022-12-31T04:14:39;34.03;;;21.10;;
40755;SDS011;26461;45.630;9.418;2022-12-31T04:17:46;39.78;;;27.88;;
40755;SDS011;26461;45.630;9.418;2022-12-31T04:20:51;42.00;;;25.75;;
40755;SDS011;26461;45.630;9.418;2022-12-31T04:24:01;35.75;;;26.30;;
40755;SDS011;26461;45.630;9.418;2022-12-31T04:27:06;38.88;;;22.90;;
40755;SDS011;26461;45.630;9.418;2022-12-31T04:30:12;38.90;;;25.38;;
40755;SDS011;26461;45.630;9.418;2022-12-31T04:33:17;45.15;;;24.15;;
40755;SDS011;26461;45.630;9.418;2022-12-31T04:36:21;26.42;;;22.50;;
40755;SDS011;26461;45.630;9.418;2022-12-31T04:39:31;33.28;;;22.30;;
40755;SDS011;26461;45.630;9.418;2022-12-31T04:42:36;26.55;;;19.50;;
40755;SDS011;26461;45.630;9.418;2022-12-31T04:45:46;33.97;;;21.70;;
40755;SDS011;26461;45.630;9.418;2022-12-31T04:48:51;28.58;;;22.48;;
40755;SDS011;26461;45.630;9.418;2022-12-31T04:51:56;46.50;;;27.02;;
40755;SDS011;26461;45.630;9.418;2022-12-31T04:55:00;32.53;;;22.25;;
40755;SDS011;26461;45.630;9.418;2022-12-31T04:58:07;22.85;;;19.10;;
40755;SDS011;26461;45.630;9.418;2022-12-31T05:01:13;30.58;;;22.00;;
40755;SDS011;26461;45.630;9.418;2022-12-31T05:04:23;39.65;;;22.48;;
40755;SDS011;26461;45.630;9.418;2022-12-31T05:07:32;25.48;;;18.15;;
40755;SDS011;26461;45.630;9.418;2022-12-31T05:10:43;26.48;;;19.10;;
40755;SDS011;26461;45.630;9.418;2022-12-31T05:13:49;32.03;;;20.63;;
40755;SDS011;26461;45.630;9.418;2022-12-31T05:16:54;34.17;;;24.77;;
40755;SDS011;26461;45.630;9.418;2022-12-31T05:20:05;38.55;;;21.95;;
40755;SDS011;26461;45.630;9.418;2022-12-31T05:23:10;32.22;;;23.52;;
40755;SDS011;26461;45.630;9.418;2022-12-31T05:26:16;40.22;;;26.88;;
40755;SDS011;26461;45.630;9.418;2022-12-31T05:29:23;63.20;;;25.55;;
40755;SDS011;26461;45.630;9.418;2022-12-31T05:32:28;33.03;;;24.77;;
40755;SDS011;26461;45.630;9.418;2022-12-31T05:35:33;28.35;;;22.35;;
40755;SDS011;26461;45.630;9.418;2022-12-31T05:38:43;23.17;;;20.58;;
40755;SDS011;26461;45.630;9.418;2022-12-31T05:41:54;28.55;;;20.65;;
40755;SDS011;26461;45.630;9.418;2022-12-31T05:44:59;28.30;;;23.70;;
40755;SDS011;26461;45.630;9.418;2022-12-31T05:48:04;31.33;;;21.40;;
40755;SDS011;26461;45.630;9.418;2022-12-31T05:51:12;30.23;;;14.95;;
40755;SDS011;26461;45.630;9.418;2022-12-31T05:54:17;35.35;;;26.23;;
40755;SDS011;26461;45.630;9.418;2022-12-31T05:57:22;40.78;;;24.48;;
40755;SDS011;26461;45.630;9.418;2022-12-31T06:00:32;29.52;;;20.55;;
40755;SDS011;26461;45.630;9.418;2022-12-31T06:03:39;32.42;;;22.77;;
40755;SDS011;26461;45.630;9.418;2022-12-31T06:06:44;25.02;;;19.33;;
40755;SDS011;26461;45.630;9.418;2022-12-31T06:09:50;21.33;;;17.02;;
40755;SDS011;26461;45.630;9.418;2022-12-31T06:12:56;31.35;;;17.77;;
40755;SDS011;26461;45.630;9.418;2022-12-31T06:16:08;23.13;;;15.68;;
40755;SDS011;26461;45.630;9.418;2022-12-31T06:19:14;19.20;;;16.25;;
40755;SDS011;26461;45.630;9.418;2022-12-31T06:22:25;14.23;;;13.18;;
40755;SDS011;26461;45.630;9.418;2022-12-31T06:25:33;22.00;;;11.93;;
40755;SDS011;26461;45.630;9.418;2022-12-31T06:28:43;18.33;;;16.08;;
40755;SDS011;26461;45.630;9.418;2022-12-31T06:31:48;28.10;;;14.93;;
40755;SDS011;26461;45.630;9.418;2022-12-31T06:34:54;16.20;;;12.93;;
40755;SDS011;26461;45.630;9.418;2022-12-31T06:37:59;17.77;;;14.40;;
40755;SDS011;26461;45.630;9.418;2022-12-31T06:41:04;17.63;;;15.52;;
40755;SDS011;26461;45.630;9.418;2022-12-31T06:44:12;19.95;;;14.45;;
40755;SDS011;26461;45.630;9.418;2022-12-31T06:47:18;17.60;;;12.95;;
40755;SDS011;26461;45.630;9.418;2022-12-31T06:50:27;21.00;;;16.48;;
40755;SDS011;26461;45.630;9.418;2022-12-31T06:53:33;25.60;;;18.50;;
40755;SDS011;26461;45.630;9.418;2022-12-31T06:56:40;35.83;;;21.52;;
40755;SDS011;26461;45.630;9.418;2022-12-31T06:59:46;16.58;;;15.75;;
40755;SDS011;26461;45.630;9.418;2022-12-31T07:06:26;19.23;;;12.60;;
40755;SDS011;26461;45.630;9.418;2022-12-31T07:20:09;17.08;;;11.93;;
40755;SDS011;26461;45.630;9.418;2022-12-31T07:23:20;26.40;;;14.52;;
40755;SDS011;26461;45.630;9.418;2022-12-31T07:33:21;13.13;;;12.00;;
40755;SDS011;26461;45.630;9.418;2022-12-31T07:36:58;15.55;;;10.13;;
40755;SDS011;26461;45.630;9.418;2022-12-31T07:44:20;18.70;;;14.18;;
40755;SDS011;26461;45.630;9.418;2022-12-31T07:47:33;16.83;;;13.30;;
40755;SDS011;26461;45.630;9.418;2022-12-31T07:50:39;19.23;;;11.82;;
40755;SDS011;26461;45.630;9.418;2022-12-31T07:53:49;20.75;;;15.50;;
40755;SDS011;26461;45.630;9.418;2022-12-31T07:56:54;21.38;;;14.85;;
40755;SDS011;26461;45.630;9.418;2022-12-31T08:00:04;14.98;;;13.75;;
40755;SDS011;26461;45.630;9.418;2022-12-31T08:07:01;19.40;;;10.45;;
40755;SDS011;26461;45.630;9.418;2022-12-31T08:13:45;23.88;;;12.68;;
40755;SDS011;26461;45.630;9.418;2022-12-31T08:16:56;21.55;;;11.48;;
40755;SDS011;26461;45.630;9.418;2022-12-31T08:20:02;14.32;;;9.60;;
40755;SDS011;26461;45.630;9.418;2022-12-31T08:32:58;18.65;;;13.90;;
40755;SDS011;26461;45.630;9.418;2022-12-31T08:36:38;22.83;;;15.52;;
40755;SDS011;26461;45.630;9.418;2022-12-31T08:40:14;18.17;;;11.57;;
40755;SDS011;26461;45.630;9.418;2022-12-31T08:46:30;20.67;;;12.27;;
40755;SDS011;26461;45.630;9.418;2022-12-31T08:49:41;21.40;;;13.07;;
40755;SDS011;26461;45.630;9.418;2022-12-31T08:52:48;12.85;;;9.82;;
40755;SDS011;26461;45.630;9.418;2022-12-31T08:56:06;13.27;;;12.57;;
40755;SDS011;26461;45.630;9.418;2022-12-31T08:59:25;21.27;;;11.20;;
40755;SDS011;26461;45.630;9.418;2022-12-31T09:02:38;13.65;;;11.52;;
40755;SDS011;26461;45.630;9.418;2022-12-31T09:19:40;17.73;;;10.20;;
40755;SDS011;26461;45.630;9.418;2022-12-31T09:22:50;15.50;;;10.68;;
40755;SDS011;26461;45.630;9.418;2022-12-31T09:35:53;14.13;;;11.50;;
40755;SDS011;26461;45.630;9.418;2022-12-31T09:46:12;18.20;;;12.85;;
40755;SDS011;26461;45.630;9.418;2022-12-31T09:49:43;21.48;;;20.38;;
40755;SDS011;26461;45.630;9.418;2022-12-31T10:07:15;22.65;;;18.80;;
40755;SDS011;26461;45.630;9.418;2022-12-31T10:10:40;12.68;;;12.02;;
40755;SDS011;26461;45.630;9.418;2022-12-31T10:17:48;21.80;;;15.07;;
40755;SDS011;26461;45.630;9.418;2022-12-31T10:24:44;22.77;;;17.42;;
40755;SDS011;26461;45.630;9.418;2022-12-31T10:32:29;16.77;;;12.98;;
40755;SDS011;26461;45.630;9.418;2022-12-31T10:39:22;18.48;;;10.95;;
40755;SDS011;26461;45.630;9.418;2022-12-31T11:04:44;22.27;;;16.55;;
40755;SDS011;26461;45.630;9.418;2022-12-31T11:14:57;23.67;;;15.70;;
40755;SDS011;26461;45.630;9.418;2022-12-31T11:25:34;20.10;;;14.93;;
40755;SDS011;26461;45.630;9.418;2022-12-31T11:29:15;31.33;;;19.70;;
40755;SDS011;26461;45.630;9.418;2022-12-31T11:43:26;25.50;;;16.88;;
40755;SDS011;26461;45.630;9.418;2022-12-31T11:46:49;30.33;;;22.58;;
40755;SDS011;26461;45.630;9.418;2022-12-31T11:53:35;47.47;;;28.73;;
40755;SDS011;26461;45.630;9.418;2022-12-31T12:00:13;25.15;;;23.50;;
40755;SDS011;26461;45.630;9.418;2022-12-31T12:03:25;41.78;;;25.52;;
40755;SDS011;26461;45.630;9.418;2022-12-31T12:06:36;26.55;;;21.80;;
40755;SDS011;26461;45.630;9.418;2022-12-31T12:09:48;35.42;;;24.88;;
40755;SDS011;26461;45.630;9.418;2022-12-31T12:13:08;27.92;;;22.33;;
40755;SDS011;26461;45.630;9.418;2022-12-31T12:16:27;29.30;;;20.20;;
40755;SDS011;26461;45.630;9.418;2022-12-31T12:19:40;38.30;;;20.40;;
40755;SDS011;26461;45.630;9.418;2022-12-31T12:22:51;34.95;;;21.85;;
40755;SDS011;26461;45.630;9.418;2022-12-31T12:26:04;39.72;;;20.42;;
40755;SDS011;26461;45.630;9.418;2022-12-31T12:29:17;31.33;;;21.52;;
40755;SDS011;26461;45.630;9.418;2022-12-31T12:32:27;24.73;;;20.35;;
40755;SDS011;26461;45.630;9.418;2022-12-31T12:35:37;42.05;;;23.42;;
40755;SDS011;26461;45.630;9.418;2022-12-31T12:38:48;23.30;;;16.45;;
40755;SDS011;26461;45.630;9.418;2022-12-31T12:42:13;27.52;;;19.95;;
40755;SDS011;26461;45.630;9.418;2022-12-31T12:45:24;38.13;;;22.92;;
40755;SDS011;26461;45.630;9.418;2022-12-31T12:48:37;37.65;;;20.27;;
40755;SDS011;26461;45.630;9.418;2022-12-31T13:09:38;39.53;;;24.23;;
40755;SDS011;26461;45.630;9.418;2022-12-31T13:13:08;21.85;;;18.20;;
40755;SDS011;26461;45.630;9.418;2022-12-31T13:16:46;31.75;;;20.30;;
40755;SDS011;26461;45.630;9.418;2022-12-31T13:20:27;30.95;;;19.67;;
40755;SDS011;26461;45.630;9.418;2022-12-31T13:23:42;21.38;;;16.95;;
40755;SDS011;26461;45.630;9.418;2022-12-31T13:27:18;32.88;;;22.33;;
40755;SDS011;26461;45.630;9.418;2022-12-31T13:30:53;33.08;;;19.88;;
40755;SDS011;26461;45.630;9.418;2022-12-31T13:37:29;33.80;;;22.63;;
40755;SDS011;26461;45.630;9.418;2022-12-31T13:40:47;29.95;;;18.25;;
40755;SDS011;26461;45.630;9.418;2022-12-31T13:44:03;23.45;;;16.70;;
40755;SDS011;26461;45.630;9.418;2022-12-31T13:50:58;32.28;;;20.20;;
40755;SDS011;26461;45.630;9.418;2022-12-31T13:57:42;29.70;;;21.75;;
40755;SDS011;26461;45.630;9.418;2022-12-31T14:04:36;26.23;;;18.95;;
40755;SDS011;26461;45.630;9.418;2022-12-31T14:07:54;39.15;;;23.50;;
40755;SDS011;26461;45.630;9.418;2022-12-31T14:14:47;32.17;;;21.67;;
40755;SDS011;26461;45.630;9.418;2022-12-31T14:18:12;28.30;;;22.17;;
40755;SDS011;26461;45.630;9.418;2022-12-31T14:25:23;31.52;;;18.52;;
40755;SDS011;26461;45.630;9.418;2022-12-31T14:28:43;23.50;;;15.70;;
40755;SDS011;26461;45.630;9.418;2022-12-31T14:32:03;31.70;;;18.42;;
40755;SDS011;26461;45.630;9.418;2022-12-31T14:35:45;42.35;;;24.33;;
40755;SDS011;26461;45.630;9.418;2022-12-31T14:39:47;33.60;;;18.77;;
40755;SDS011;26461;45.630;9.418;2022-12-31T14:50:45;36.97;;;25.23;;
40755;SDS011;26461;45.630;9.418;2022-12-31T14:53:56;30.55;;;20.95;;
40755;SDS011;26461;45.630;9.418;2022-12-31T15:03:48;32.03;;;24.65;;
40755;SDS011;26461;45.630;9.418;2022-12-31T15:07:06;32.00;;;21.17;;
40755;SDS011;26461;45.630;9.418;2022-12-31T15:10:22;38.10;;;28.02;;
40755;SDS011;26461;45.630;9.418;2022-12-31T15:13:45;37.50;;;28.75;;
40755;SDS011;26461;45.630;9.418;2022-12-31T15:17:25;27.05;;;24.77;;
40755;SDS011;26461;45.630;9.418;2022-12-31T15:24:01;32.88;;;25.80;;
40755;SDS011;26461;45.630;9.418;2022-12-31T15:27:43;34.05;;;29.55;;
40755;SDS011;26461;45.630;9.418;2022-12-31T15:30:55;26.38;;;24.55;;
40755;SDS011;26461;45.630;9.418;2022-12-31T15:37:34;37.22;;;25.58;;
40755;SDS011;26461;45.630;9.418;2022-12-31T15:40:49;28.55;;;21.00;;
40755;SDS011;26461;45.630;9.418;2022-12-31T15:44:00;34.45;;;24.85;;
40755;SDS011;26461;45.630;9.418;2022-12-31T15:47:27;26.95;;;23.65;;
40755;SDS011;26461;45.630;9.418;2022-12-31T15:50:41;32.90;;;29.30;;
40755;SDS011;26461;45.630;9.418;2022-12-31T15:53:52;30.30;;;22.75;;
40755;SDS011;26461;45.630;9.418;2022-12-31T15:57:04;27.17;;;25.17;;
40755;SDS011;26461;45.630;9.418;2022-12-31T16:00:20;24.80;;;22.75;;
40755;SDS011;26461;45.630;9.418;2022-12-31T16:03:31;27.10;;;20.08;;
40755;SDS011;26461;45.630;9.418;2022-12-31T16:06:41;28.75;;;26.38;;
40755;SDS011;26461;45.630;9.418;2022-12-31T16:09:52;25.83;;;20.92;;
40755;SDS011;26461;45.630;9.418;2022-12-31T16:13:04;34.88;;;26.33;;
40755;SDS011;26461;45.630;9.418;2022-12-31T16:16:22;26.95;;;22.48;;
40755;SDS011;26461;45.630;9.418;2022-12-31T16:22:51;32.17;;;24.20;;
40755;SDS011;26461;45.630;9.418;2022-12-31T16:26:04;22.58;;;21.33;;
40755;SDS011;26461;45.630;9.418;2022-12-31T16:29:15;25.38;;;22.40;;
40755;SDS011;26461;45.630;9.418;2022-12-31T16:32:32;30.77;;;23.13;;
40755;SDS011;26461;45.630;9.418;2022-12-31T16:35:52;32.53;;;21.30;;
40755;SDS011;26461;45.630;9.418;2022-12-31T16:42:37;33.45;;;23.13;;
40755;SDS011;26461;45.630;9.418;2022-12-31T16:45:48;30.95;;;27.67;;
40755;SDS011;26461;45.630;9.418;2022-12-31T16:48:59;29.20;;;24.58;;
40755;SDS011;26461;45.630;9.418;2022-12-31T16:55:35;25.23;;;21.13;;
40755;SDS011;26461;45.630;9.418;2022-12-31T16:58:44;27.50;;;22.60;;
40755;SDS011;26461;45.630;9.418;2022-12-31T17:01:55;25.02;;;23.80;;
40755;SDS011;26461;45.630;9.418;2022-12-31T17:05:00;30.88;;;24.58;;
40755;SDS011;26461;45.630;9.418;2022-12-31T17:08:20;23.50;;;21.17;;
40755;SDS011;26461;45.630;9.418;2022-12-31T17:11:34;28.25;;;21.58;;
40755;SDS011;26461;45.630;9.418;2022-12-31T17:14:50;25.95;;;24.63;;
40755;SDS011;26461;45.630;9.418;2022-12-31T17:18:00;30.40;;;24.60;;
40755;SDS011;26461;45.630;9.418;2022-12-31T17:21:11;39.50;;;22.27;;
40755;SDS011;26461;45.630;9.418;2022-12-31T17:24:21;23.38;;;22.20;;
40755;SDS011;26461;45.630;9.418;2022-12-31T17:27:32;33.78;;;24.48;;
40755;SDS011;26461;45.630;9.418;2022-12-31T17:30:43;33.35;;;28.40;;
40755;SDS011;26461;45.630;9.418;2022-12-31T17:33:54;27.13;;;23.88;;
40755;SDS011;26461;45.630;9.418;2022-12-31T17:37:30;39.05;;;26.88;;
40755;SDS011;26461;45.630;9.418;2022-12-31T17:40:40;38.80;;;30.67;;
40755;SDS011;26461;45.630;9.418;2022-12-31T17:43:52;31.77;;;24.05;;
40755;SDS011;26461;45.630;9.418;2022-12-31T17:47:03;36.13;;;23.58;;
40755;SDS011;26461;45.630;9.418;2022-12-31T17:50:18;32.90;;;25.80;;
40755;SDS011;26461;45.630;9.418;2022-12-31T17:53:31;35.45;;;28.63;;
40755;SDS011;26461;45.630;9.418;2022-12-31T17:56:41;31.13;;;24.77;;
40755;SDS011;26461;45.630;9.418;2022-12-31T17:59:51;37.45;;;24.02;;
40755;SDS011;26461;45.630;9.418;2022-12-31T18:03:02;33.28;;;22.10;;
40755;SDS011;26461;45.630;9.418;2022-12-31T18:06:12;41.92;;;25.08;;
40755;SDS011;26461;45.630;9.418;2022-12-31T18:09:22;33.78;;;26.33;;
40755;SDS011;26461;45.630;9.418;2022-12-31T18:12:33;26.92;;;19.73;;
40755;SDS011;26461;45.630;9.418;2022-12-31T18:15:43;31.98;;;24.38;;
40755;SDS011;26461;45.630;9.418;2022-12-31T18:18:58;50.85;;;26.50;;
40755;SDS011;26461;45.630;9.418;2022-12-31T18:22:11;28.77;;;19.77;;
40755;SDS011;26461;45.630;9.418;2022-12-31T18:25:23;28.63;;;19.20;;
40755;SDS011;26461;45.630;9.418;2022-12-31T18:28:33;23.52;;;22.35;;
40755;SDS011;26461;45.630;9.418;2022-12-31T18:31:44;25.27;;;19.15;;
40755;SDS011;26461;45.630;9.418;2022-12-31T18:34:55;27.80;;;23.75;;
40755;SDS011;26461;45.630;9.418;2022-12-31T18:38:08;41.50;;;25.05;;
40755;SDS011;26461;45.630;9.418;2022-12-31T18:41:23;37.22;;;25.58;;
40755;SDS011;26461;45.630;9.418;2022-12-31T18:44:35;45.33;;;19.98;;
40755;SDS011;26461;45.630;9.418;2022-12-31T18:47:40;26.63;;;16.73;;
40755;SDS011;26461;45.630;9.418;2022-12-31T18:54:29;44.05;;;24.05;;
40755;SDS011;26461;45.630;9.418;2022-12-31T18:57:34;24.88;;;19.38;;
40755;SDS011;26461;45.630;9.418;2022-12-31T19:00:45;33.95;;;24.70;;
40755;SDS011;26461;45.630;9.418;2022-12-31T19:03:50;30.50;;;24.15;;
40755;SDS011;26461;45.630;9.418;2022-12-31T19:07:00;35.75;;;29.60;;
40755;SDS011;26461;45.630;9.418;2022-12-31T19:10:07;29.15;;;24.77;;
40755;SDS011;26461;45.630;9.418;2022-12-31T19:13:18;30.80;;;28.52;;
40755;SDS011;26461;45.630;9.418;2022-12-31T19:16:28;30.65;;;24.45;;
40755;SDS011;26461;45.630;9.418;2022-12-31T19:19:39;41.45;;;26.67;;
40755;SDS011;26461;45.630;9.418;2022-12-31T19:22:47;32.30;;;28.77;;
40755;SDS011;26461;45.630;9.418;2022-12-31T19:33:28;19.77;;;18.80;;
40755;SDS011;26461;45.630;9.418;2022-12-31T19:36:38;27.75;;;21.45;;
40755;SDS011;26461;45.630;9.418;2022-12-31T19:39:51;34.08;;;27.67;;
40755;SDS011;26461;45.630;9.418;2022-12-31T19:43:01;29.70;;;27.13;;
40755;SDS011;26461;45.630;9.418;2022-12-31T19:46:08;35.45;;;19.63;;
40755;SDS011;26461;45.630;9.418;2022-12-31T19:54:05;34.65;;;27.20;;
40755;SDS011;26461;45.630;9.418;2022-12-31T20:00:47;43.45;;;31.77;;
40755;SDS011;26461;45.630;9.418;2022-12-31T20:11:34;38.45;;;25.30;;
40755;SDS011;26461;45.630;9.418;2022-12-31T20:14:45;38.75;;;26.73;;
40755;SDS011;26461;45.630;9.418;2022-12-31T20:17:55;43.38;;;25.42;;
40755;SDS011;26461;45.630;9.418;2022-12-31T20:21:01;34.53;;;27.48;;
40755;SDS011;26461;45.630;9.418;2022-12-31T20:24:05;30.95;;;24.73;;
40755;SDS011;26461;45.630;9.418;2022-12-31T20:27:19;44.55;;;26.13;;
40755;SDS011;26461;45.630;9.418;2022-12-31T20:30:29;31.23;;;24.20;;
40755;SDS011;26461;45.630;9.418;2022-12-31T20:33:42;32.67;;;21.70;;
40755;SDS011;26461;45.630;9.418;2022-12-31T20:36:53;28.17;;;20.05;;
40755;SDS011;26461;45.630;9.418;2022-12-31T20:40:02;26.35;;;24.42;;
40755;SDS011;26461;45.630;9.418;2022-12-31T20:43:12;31.08;;;20.90;;
40755;SDS011;26461;45.630;9.418;2022-12-31T20:46:23;41.80;;;24.77;;
40755;SDS011;26461;45.630;9.418;2022-12-31T20:49:36;35.55;;;22.15;;
40755;SDS011;26461;45.630;9.418;2022-12-31T20:52:46;28.10;;;20.77;;
40755;SDS011;26461;45.630;9.418;2022-12-31T20:55:56;33.05;;;22.15;;
40755;SDS011;26461;45.630;9.418;2022-12-31T20:59:01;37.75;;;25.40;;
40755;SDS011;26461;45.630;9.418;2022-12-31T21:02:12;26.45;;;23.27;;
40755;SDS011;26461;45.630;9.418;2022-12-31T21:09:06;28.38;;;18.08;;
40755;SDS011;26461;45.630;9.418;2022-12-31T21:12:16;35.72;;;22.55;;
40755;SDS011;26461;45.630;9.418;2022-12-31T21:15:48;33.65;;;23.60;;
40755;SDS011;26461;45.630;9.418;2022-12-31T21:18:58;39.58;;;23.88;;
40755;SDS011;26461;45.630;9.418;2022-12-31T21:25:53;36.20;;;20.23;;
40755;SDS011;26461;45.630;9.418;2022-12-31T21:36:15;32.55;;;24.83;;
40755;SDS011;26461;45.630;9.418;2022-12-31T21:39:25;35.72;;;23.48;;
40755;SDS011;26461;45.630;9.418;2022-12-31T21:42:34;45.38;;;26.85;;
40755;SDS011;26461;45.630;9.418;2022-12-31T21:45:57;35.28;;;22.20;;
40755;SDS011;26461;45.630;9.418;2022-12-31T21:52:52;27.98;;;23.40;;
40755;SDS011;26461;45.630;9.418;2022-12-31T21:56:02;32.78;;;25.73;;
40755;SDS011;26461;45.630;9.418;2022-12-31T21:59:20;41.97;;;25.15;;
40755;SDS011;26461;45.630;9.418;2022-12-31T22:02:52;33.65;;;25.52;;
40755;SDS011;26461;45.630;9.418;2022-12-31T22:09:58;40.33;;;28.73;;
40755;SDS011;26461;45.630;9.418;2022-12-31T22:13:08;34.13;;;22.38;;
40755;SDS011;26461;45.630;9.418;2022-12-31T22:16:19;43.38;;;28.38;;
40755;SDS011;26461;45.630;9.418;2022-12-31T22:19:31;32.60;;;24.98;;
40755;SDS011;26461;45.630;9.418;2022-12-31T22:22:47;35.03;;;23.23;;
40755;SDS011;26461;45.630;9.418;2022-12-31T22:25:59;25.23;;;21.40;;
40755;SDS011;26461;45.630;9.418;2022-12-31T22:29:09;36.97;;;24.63;;
40755;SDS011;26461;45.630;9.418;2022-12-31T22:32:19;44.05;;;25.52;;
40755;SDS011;26461;45.630;9.418;2022-12-31T22:35:30;43.38;;;27.50;;
40755;SDS011;26461;45.630;9.418;2022-12-31T22:38:41;30.95;;;23.08;;
40755;SDS011;26461;45.630;9.418;2022-12-31T22:41:52;30.70;;;20.95;;
40755;SDS011;26461;45.630;9.418;2022-12-31T22:45:03;30.13;;;24.20;;
40755;SDS011;26461;45.630;9.418;2022-12-31T22:48:08;39.58;;;28.60;;
40755;SDS011;26461;45.630;9.418;2022-12-31T22:51:18;37.65;;;26.25;;
40755;SDS011;26461;45.630;9.418;2022-12-31T22:54:29;41.17;;;26.95;;
40755;SDS011;26461;45.630;9.418;2022-12-31T22:57:39;37.70;;;26.42;;
40755;SDS011;26461;45.630;9.418;2022-12-31T23:05:41;45.05;;;26.27;;
40755;SDS011;26461;45.630;9.418;2022-12-31T23:08:56;48.22;;;39.53;;
40755;SDS011;26461;45.630;9.418;2022-12-31T23:12:27;40.05;;;27.13;;
40755;SDS011;26461;45.630;9.418;2022-12-31T23:20:00;87.25;;;61.28;;
40755;SDS011;26461;45.630;9.418;2022-12-31T23:23:28;72.57;;;49.63;;
40755;SDS011;26461;45.630;9.418;2022-12-31T23:26:38;80.85;;;68.18;;
40755;SDS011;26461;45.630;9.418;2022-12-31T23:29:48;81.32;;;49.60;;
40755;SDS011;26461;45.630;9.418;2022-12-31T23:32:58;55.72;;;41.80;;
40755;SDS011;26461;45.630;9.418;2022-12-31T23:36:13;37.65;;;34.90;;
40755;SDS011;26461;45.630;9.418;2022-12-31T23:39:25;46.33;;;32.45;;
40755;SDS011;26461;45.630;9.418;2022-12-31T23:42:35;53.78;;;29.77;;
40755;SDS011;26461;45.630;9.418;2022-12-31T23:45:45;42.70;;;33.33;;
40755;SDS011;26461;45.630;9.418;2022-12-31T23:48:55;52.72;;;34.17;;
40755;SDS011;26461;45.630;9.418;2022-12-31T23:55:40;43.05;;;32.15;;
40755;SDS011;26461;45.630;9.418;2022-12-31T23:58:55;36.45;;;30.92;;
